sensor_id;sensor_type;location;lat;lon;timestamp;temperature;humidity
25170;DHT22;13129;48.012;10.352;2024-03-02T04:32:11;3.50;99.90
25170;DHT22;13129;48.012;10.352;2024-03-02T04:34:55;3.40;99.90
25170;DHT22;13129;48.012;10.352;2024-03-02T04:37:39;3.30;99.90
25170;DHT22;13129;48.012;10.352;2024-03-02T04:40:28;3.30;99.90
25170;DHT22;13129;48.012;10.352;2024-03-02T04:42:59;3.30;99.90
25170;DHT22;13129;48.012;10.352;2024-03-02T04:45:29;3.30;99.90
25170;DHT22;13129;48.012;10.352;2024-03-02T04:47:54;3.20;99.90
25170;DHT22;13129;48.012;10.352;2024-03-02T04:50:20;3.30;99.90
25170;DHT22;13129;48.012;10.352;2024-03-02T04:52:45;3.30;99.90
25170;DHT22;13129;48.012;10.352;2024-03-02T04:55:11;3.30;99.90
25170;DHT22;13129;48.012;10.352;2024-03-02T04:58:15;3.20;99.90
25170;DHT22;13129;48.012;10.352;2024-03-02T05:00:40;3.10;99.90
25170;DHT22;13129;48.012;10.352;2024-03-02T05:03:08;3.10;99.90
25170;DHT22;13129;48.012;10.352;2024-03-02T05:05:33;3.10;99.90
25170;DHT22;13129;48.012;10.352;2024-03-02T05:08:00;3.00;99.90
25170;DHT22;13129;48.012;10.352;2024-03-02T05:10:26;2.90;99.90
25170;DHT22;13129;48.012;10.352;2024-03-02T05:12:51;2.80;99.90
25170;DHT22;13129;48.012;10.352;2024-03-02T05:15:24;2.80;99.90
25170;DHT22;13129;48.012;10.352;2024-03-02T05:17:50;2.80;99.90
25170;DHT22;13129;48.012;10.352;2024-03-02T05:20:16;2.70;99.90
25170;DHT22;13129;48.012;10.352;2024-03-02T05:22:42;2.70;99.90
25170;DHT22;13129;48.012;10.352;2024-03-02T05:25:08;2.70;99.90
25170;DHT22;13129;48.012;10.352;2024-03-02T05:27:35;2.70;99.90
25170;DHT22;13129;48.012;10.352;2024-03-02T05:30:01;2.70;99.90
25170;DHT22;13129;48.012;10.352;2024-03-02T05:32:27;2.80;99.90
25170;DHT22;13129;48.012;10.352;2024-03-02T05:34:53;2.70;99.90
25170;DHT22;13129;48.012;10.352;2024-03-02T05:37:19;2.70;99.90
25170;DHT22;13129;48.012;10.352;2024-03-02T05:39:48;2.70;99.90
25170;DHT22;13129;48.012;10.352;2024-03-02T05:42:13;2.70;99.90
25170;DHT22;13129;48.012;10.352;2024-03-02T05:44:40;2.60;99.90
25170;DHT22;13129;48.012;10.352;2024-03-02T05:47:05;2.60;99.90
25170;DHT22;13129;48.012;10.352;2024-03-02T05:49:34;2.60;99.90
25170;DHT22;13129;48.012;10.352;2024-03-02T05:51:59;2.60;99.90
25170;DHT22;13129;48.012;10.352;2024-03-02T05:54:25;2.80;99.90
25170;DHT22;13129;48.012;10.352;2024-03-02T05:56:50;2.70;99.90
25170;DHT22;13129;48.012;10.352;2024-03-02T05:59:16;2.80;99.90
25170;DHT22;13129;48.012;10.352;2024-03-02T06:01:43;2.70;99.90
25170;DHT22;13129;48.012;10.352;2024-03-02T06:04:11;2.70;99.90
25170;DHT22;13129;48.012;10.352;2024-03-02T06:06:36;2.70;99.90
25170;DHT22;13129;48.012;10.352;2024-03-02T06:09:03;2.80;99.90
25170;DHT22;13129;48.012;10.352;2024-03-02T06:11:36;2.80;99.90
25170;DHT22;13129;48.012;10.352;2024-03-02T06:14:06;2.90;99.90
25170;DHT22;13129;48.012;10.352;2024-03-02T06:16:32;2.90;99.90
25170;DHT22;13129;48.012;10.352;2024-03-02T06:18:58;3.00;99.90
25170;DHT22;13129;48.012;10.352;2024-03-02T06:21:24;3.20;99.90
25170;DHT22;13129;48.012;10.352;2024-03-02T06:23:50;3.30;99.90
25170;DHT22;13129;48.012;10.352;2024-03-02T06:26:16;3.40;99.90
25170;DHT22;13129;48.012;10.352;2024-03-02T06:28:42;3.60;99.90
25170;DHT22;13129;48.012;10.352;2024-03-02T06:31:08;3.70;99.90
25170;DHT22;13129;48.012;10.352;2024-03-02T06:33:34;3.80;99.90
25170;DHT22;13129;48.012;10.352;2024-03-02T06:36:00;3.90;99.90
25170;DHT22;13129;48.012;10.352;2024-03-02T06:38:25;4.00;99.90
25170;DHT22;13129;48.012;10.352;2024-03-02T06:40:51;4.10;99.90
25170;DHT22;13129;48.012;10.352;2024-03-02T06:43:17;4.20;99.90
25170;DHT22;13129;48.012;10.352;2024-03-02T06:45:42;4.30;99.90
25170;DHT22;13129;48.012;10.352;2024-03-02T06:48:08;4.50;99.90
25170;DHT22;13129;48.012;10.352;2024-03-02T06:50:33;4.60;99.90
25170;DHT22;13129;48.012;10.352;2024-03-02T06:52:59;4.70;99.90
25170;DHT22;13129;48.012;10.352;2024-03-02T06:55:25;4.90;99.90
25170;DHT22;13129;48.012;10.352;2024-03-02T06:57:51;4.90;99.90
25170;DHT22;13129;48.012;10.352;2024-03-02T07:00:17;5.00;99.90
25170;DHT22;13129;48.012;10.352;2024-03-02T07:02:44;5.00;99.90
25170;DHT22;13129;48.012;10.352;2024-03-02T07:05:10;5.00;99.90
25170;DHT22;13129;48.012;10.352;2024-03-02T07:07:36;5.10;99.90
25170;DHT22;13129;48.012;10.352;2024-03-02T07:10:06;5.20;99.90
25170;DHT22;13129;48.012;10.352;2024-03-02T07:12:32;5.30;99.90
25170;DHT22;13129;48.012;10.352;2024-03-02T07:14:58;5.40;99.90
25170;DHT22;13129;48.012;10.352;2024-03-02T07:17:30;5.50;99.90
25170;DHT22;13129;48.012;10.352;2024-03-02T07:19:56;5.60;99.90
25170;DHT22;13129;48.012;10.352;2024-03-02T07:22:22;5.70;99.90
25170;DHT22;13129;48.012;10.352;2024-03-02T07:24:48;5.90;99.90
25170;DHT22;13129;48.012;10.352;2024-03-02T07:27:15;6.10;99.90
25170;DHT22;13129;48.012;10.352;2024-03-02T07:29:41;6.20;99.90
25170;DHT22;13129;48.012;10.352;2024-03-02T07:32:08;6.30;99.90
25170;DHT22;13129;48.012;10.352;2024-03-02T07:34:34;6.40;99.90
25170;DHT22;13129;48.012;10.352;2024-03-02T07:37:00;6.50;99.90
25170;DHT22;13129;48.012;10.352;2024-03-02T07:39:25;6.60;99.90
25170;DHT22;13129;48.012;10.352;2024-03-02T07:41:52;6.70;99.90
25170;DHT22;13129;48.012;10.352;2024-03-02T07:44:17;6.70;99.90
25170;DHT22;13129;48.012;10.352;2024-03-02T07:46:45;6.90;99.90
25170;DHT22;13129;48.012;10.352;2024-03-02T07:49:12;7.10;99.90
25170;DHT22;13129;48.012;10.352;2024-03-02T07:51:39;7.20;99.90
25170;DHT22;13129;48.012;10.352;2024-03-02T07:54:05;7.50;99.90
25170;DHT22;13129;48.012;10.352;2024-03-02T07:56:30;7.70;99.90
25170;DHT22;13129;48.012;10.352;2024-03-02T07:58:56;8.00;99.90
25170;DHT22;13129;48.012;10.352;2024-03-02T08:01:29;8.40;99.90
25170;DHT22;13129;48.012;10.352;2024-03-02T08:03:56;8.80;99.90
25170;DHT22;13129;48.012;10.352;2024-03-02T08:06:27;9.20;99.90
25170;DHT22;13129;48.012;10.352;2024-03-02T08:09:00;9.50;99.90
25170;DHT22;13129;48.012;10.352;2024-03-02T08:11:26;9.90;99.90
25170;DHT22;13129;48.012;10.352;2024-03-02T08:13:56;10.10;99.90
25170;DHT22;13129;48.012;10.352;2024-03-02T08:16:23;10.30;99.90
25170;DHT22;13129;48.012;10.352;2024-03-02T08:18:49;10.80;99.90
25170;DHT22;13129;48.012;10.352;2024-03-02T08:21:14;11.20;99.90
25170;DHT22;13129;48.012;10.352;2024-03-02T08:23:40;11.80;99.90
25170;DHT22;13129;48.012;10.352;2024-03-02T08:26:08;12.50;99.90
25170;DHT22;13129;48.012;10.352;2024-03-02T08:28:34;13.20;99.90
25170;DHT22;13129;48.012;10.352;2024-03-02T08:31:00;13.60;99.90
25170;DHT22;13129;48.012;10.352;2024-03-02T08:33:25;14.10;99.90
25170;DHT22;13129;48.012;10.352;2024-03-02T08:35:51;14.60;99.90
25170;DHT22;13129;48.012;10.352;2024-03-02T08:38:17;14.60;99.90
25170;DHT22;13129;48.012;10.352;2024-03-02T08:40:46;14.40;99.90
25170;DHT22;13129;48.012;10.352;2024-03-02T08:43:14;14.90;99.90
25170;DHT22;13129;48.012;10.352;2024-03-02T08:46:13;15.20;99.90
25170;DHT22;13129;48.012;10.352;2024-03-02T08:48:42;15.40;99.90
25170;DHT22;13129;48.012;10.352;2024-03-02T08:55:23;15.20;99.90
25170;DHT22;13129;48.012;10.352;2024-03-02T08:57:52;15.10;99.90
25170;DHT22;13129;48.012;10.352;2024-03-02T09:00:18;14.80;99.90
25170;DHT22;13129;48.012;10.352;2024-03-02T09:02:47;14.60;99.90
25170;DHT22;13129;48.012;10.352;2024-03-02T09:05:13;14.60;99.90
25170;DHT22;13129;48.012;10.352;2024-03-02T09:07:38;14.20;99.90
25170;DHT22;13129;48.012;10.352;2024-03-02T09:10:08;13.90;99.90
25170;DHT22;13129;48.012;10.352;2024-03-02T09:12:34;13.80;99.90
25170;DHT22;13129;48.012;10.352;2024-03-02T09:15:01;13.70;99.90
25170;DHT22;13129;48.012;10.352;2024-03-02T09:17:27;13.80;99.90
25170;DHT22;13129;48.012;10.352;2024-03-02T09:19:52;14.10;99.90
25170;DHT22;13129;48.012;10.352;2024-03-02T09:22:20;14.70;99.90
25170;DHT22;13129;48.012;10.352;2024-03-02T09:24:46;15.40;99.90
25170;DHT22;13129;48.012;10.352;2024-03-02T09:27:12;16.00;99.90
25170;DHT22;13129;48.012;10.352;2024-03-02T09:29:38;17.20;99.90
25170;DHT22;13129;48.012;10.352;2024-03-02T09:35:57;18.90;95.00
25170;DHT22;13129;48.012;10.352;2024-03-02T09:48:48;21.50;82.40
25170;DHT22;13129;48.012;10.352;2024-03-02T09:51:34;22.50;77.40
25170;DHT22;13129;48.012;10.352;2024-03-02T09:54:01;23.60;72.70
25170;DHT22;13129;48.012;10.352;2024-03-02T09:56:27;24.60;70.50
25170;DHT22;13129;48.012;10.352;2024-03-02T09:58:52;25.10;65.50
25170;DHT22;13129;48.012;10.352;2024-03-02T10:01:18;25.10;64.10
25170;DHT22;13129;48.012;10.352;2024-03-02T10:03:52;24.80;62.70
25170;DHT22;13129;48.012;10.352;2024-03-02T10:06:26;24.50;62.10
25170;DHT22;13129;48.012;10.352;2024-03-02T10:08:52;24.00;62.20
25170;DHT22;13129;48.012;10.352;2024-03-02T10:11:32;23.50;62.00
25170;DHT22;13129;48.012;10.352;2024-03-02T10:14:08;23.20;61.90
25170;DHT22;13129;48.012;10.352;2024-03-02T10:16:39;22.50;62.90
25170;DHT22;13129;48.012;10.352;2024-03-02T10:19:21;22.40;63.10
25170;DHT22;13129;48.012;10.352;2024-03-02T10:35:02;20.30;69.80
25170;DHT22;13129;48.012;10.352;2024-03-02T10:37:41;20.20;70.20
25170;DHT22;13129;48.012;10.352;2024-03-02T10:40:16;19.90;70.40
25170;DHT22;13129;48.012;10.352;2024-03-02T11:01:40;21.70;68.30
25170;DHT22;13129;48.012;10.352;2024-03-02T11:04:09;22.00;64.60
25170;DHT22;13129;48.012;10.352;2024-03-02T11:06:47;22.80;63.50
25170;DHT22;13129;48.012;10.352;2024-03-02T11:27:01;22.90;59.80
25170;DHT22;13129;48.012;10.352;2024-03-02T11:40:06;19.80;68.20
25170;DHT22;13129;48.012;10.352;2024-03-02T11:42:40;18.70;71.00
25170;DHT22;13129;48.012;10.352;2024-03-02T11:48:01;17.10;73.30
25170;DHT22;13129;48.012;10.352;2024-03-02T11:50:48;16.80;75.00
25170;DHT22;13129;48.012;10.352;2024-03-02T11:53:15;16.30;75.90
25170;DHT22;13129;48.012;10.352;2024-03-02T11:55:41;15.70;77.30
25170;DHT22;13129;48.012;10.352;2024-03-02T11:58:09;15.10;78.70
25170;DHT22;13129;48.012;10.352;2024-03-02T12:00:35;14.70;80.10
25170;DHT22;13129;48.012;10.352;2024-03-02T12:03:04;14.40;81.00
25170;DHT22;13129;48.012;10.352;2024-03-02T12:05:31;14.20;82.30
25170;DHT22;13129;48.012;10.352;2024-03-02T12:07:58;14.10;83.60
25170;DHT22;13129;48.012;10.352;2024-03-02T12:10:24;14.10;84.80
25170;DHT22;13129;48.012;10.352;2024-03-02T12:13:07;14.10;85.80
25170;DHT22;13129;48.012;10.352;2024-03-02T12:15:34;14.10;86.20
25170;DHT22;13129;48.012;10.352;2024-03-02T12:18:02;14.10;86.50
25170;DHT22;13129;48.012;10.352;2024-03-02T12:20:30;13.90;87.30
25170;DHT22;13129;48.012;10.352;2024-03-02T12:22:58;13.90;88.50
25170;DHT22;13129;48.012;10.352;2024-03-02T12:25:25;13.80;88.00
25170;DHT22;13129;48.012;10.352;2024-03-02T12:27:55;14.00;87.70
25170;DHT22;13129;48.012;10.352;2024-03-02T12:30:21;13.90;87.40
25170;DHT22;13129;48.012;10.352;2024-03-02T12:32:47;13.90;87.90
25170;DHT22;13129;48.012;10.352;2024-03-02T12:35:13;14.00;88.80
25170;DHT22;13129;48.012;10.352;2024-03-02T12:37:49;14.00;87.90
25170;DHT22;13129;48.012;10.352;2024-03-02T12:40:16;14.00;87.70
25170;DHT22;13129;48.012;10.352;2024-03-02T12:42:44;13.90;86.40
25170;DHT22;13129;48.012;10.352;2024-03-02T12:45:10;13.70;85.30
25170;DHT22;13129;48.012;10.352;2024-03-02T12:47:36;13.60;85.90
25170;DHT22;13129;48.012;10.352;2024-03-02T12:50:03;13.70;87.80
25170;DHT22;13129;48.012;10.352;2024-03-02T12:52:29;13.70;88.60
25170;DHT22;13129;48.012;10.352;2024-03-02T12:54:56;13.80;90.10
25170;DHT22;13129;48.012;10.352;2024-03-02T12:57:34;13.70;90.10
25170;DHT22;13129;48.012;10.352;2024-03-02T13:02:30;13.50;90.60
25170;DHT22;13129;48.012;10.352;2024-03-02T13:04:56;13.50;91.20
25170;DHT22;13129;48.012;10.352;2024-03-02T13:07:26;13.50;91.80
25170;DHT22;13129;48.012;10.352;2024-03-02T13:09:52;13.50;92.00
25170;DHT22;13129;48.012;10.352;2024-03-02T13:12:21;13.50;91.90
25170;DHT22;13129;48.012;10.352;2024-03-02T13:14:51;13.60;91.90
25170;DHT22;13129;48.012;10.352;2024-03-02T13:17:20;13.60;91.60
25170;DHT22;13129;48.012;10.352;2024-03-02T13:20:02;13.50;90.60
25170;DHT22;13129;48.012;10.352;2024-03-02T13:22:29;13.40;90.50
25170;DHT22;13129;48.012;10.352;2024-03-02T13:24:56;13.30;90.00
25170;DHT22;13129;48.012;10.352;2024-03-02T13:27:22;13.20;90.30
25170;DHT22;13129;48.012;10.352;2024-03-02T13:29:49;13.20;90.90
25170;DHT22;13129;48.012;10.352;2024-03-02T13:32:15;13.20;90.90
25170;DHT22;13129;48.012;10.352;2024-03-02T13:34:41;13.20;90.40
25170;DHT22;13129;48.012;10.352;2024-03-02T13:37:07;13.20;90.50
25170;DHT22;13129;48.012;10.352;2024-03-02T13:39:33;13.30;90.60
25170;DHT22;13129;48.012;10.352;2024-03-02T13:44:34;13.10;90.40
25170;DHT22;13129;48.012;10.352;2024-03-02T13:47:00;13.00;90.50
25170;DHT22;13129;48.012;10.352;2024-03-02T13:49:29;13.00;90.70
25170;DHT22;13129;48.012;10.352;2024-03-02T13:52:09;13.00;91.00
25170;DHT22;13129;48.012;10.352;2024-03-02T13:54:44;13.00;90.80
25170;DHT22;13129;48.012;10.352;2024-03-02T13:57:10;13.00;91.00
25170;DHT22;13129;48.012;10.352;2024-03-02T13:59:37;13.00;91.60
25170;DHT22;13129;48.012;10.352;2024-03-02T14:02:04;13.00;91.90
25170;DHT22;13129;48.012;10.352;2024-03-02T14:04:36;13.00;92.30
25170;DHT22;13129;48.012;10.352;2024-03-02T14:53:57;12.70;96.70
25170;DHT22;13129;48.012;10.352;2024-03-02T14:56:23;12.80;96.90
25170;DHT22;13129;48.012;10.352;2024-03-02T14:58:49;12.70;96.80
25170;DHT22;13129;48.012;10.352;2024-03-02T15:01:16;12.80;97.00
25170;DHT22;13129;48.012;10.352;2024-03-02T15:03:43;12.80;97.00
25170;DHT22;13129;48.012;10.352;2024-03-02T15:06:09;12.70;96.80
25170;DHT22;13129;48.012;10.352;2024-03-02T15:08:35;12.80;97.00
25170;DHT22;13129;48.012;10.352;2024-03-02T15:11:01;12.70;97.00
25170;DHT22;13129;48.012;10.352;2024-03-02T15:13:29;12.70;97.20
25170;DHT22;13129;48.012;10.352;2024-03-02T15:15:54;12.60;97.30
25170;DHT22;13129;48.012;10.352;2024-03-02T15:18:20;12.60;97.50
25170;DHT22;13129;48.012;10.352;2024-03-02T15:20:45;12.50;97.90
25170;DHT22;13129;48.012;10.352;2024-03-02T15:23:11;12.40;98.10
25170;DHT22;13129;48.012;10.352;2024-03-02T15:25:37;12.40;98.20
25170;DHT22;13129;48.012;10.352;2024-03-02T15:28:02;12.40;98.50
25170;DHT22;13129;48.012;10.352;2024-03-02T15:30:28;12.30;98.70
25170;DHT22;13129;48.012;10.352;2024-03-02T15:32:54;12.30;98.90
25170;DHT22;13129;48.012;10.352;2024-03-02T15:35:19;12.30;99.30
25170;DHT22;13129;48.012;10.352;2024-03-02T15:37:45;12.30;99.50
25170;DHT22;13129;48.012;10.352;2024-03-02T15:40:10;12.30;99.70
25170;DHT22;13129;48.012;10.352;2024-03-02T15:42:36;12.30;99.90
25170;DHT22;13129;48.012;10.352;2024-03-02T15:45:02;12.30;99.90
25170;DHT22;13129;48.012;10.352;2024-03-02T15:47:28;12.20;99.90
25170;DHT22;13129;48.012;10.352;2024-03-02T15:49:54;12.10;99.90
25170;DHT22;13129;48.012;10.352;2024-03-02T15:52:20;12.10;99.90
25170;DHT22;13129;48.012;10.352;2024-03-02T15:54:49;12.00;99.90
25170;DHT22;13129;48.012;10.352;2024-03-02T15:57:15;11.80;99.90
25170;DHT22;13129;48.012;10.352;2024-03-02T15:59:42;11.60;99.90
25170;DHT22;13129;48.012;10.352;2024-03-02T16:02:08;11.50;99.90
25170;DHT22;13129;48.012;10.352;2024-03-02T16:04:34;11.30;99.90
25170;DHT22;13129;48.012;10.352;2024-03-02T16:06:59;11.20;99.90
25170;DHT22;13129;48.012;10.352;2024-03-02T16:09:25;11.10;99.90
25170;DHT22;13129;48.012;10.352;2024-03-02T16:11:50;11.00;99.90
25170;DHT22;13129;48.012;10.352;2024-03-02T16:14:16;10.90;99.90
25170;DHT22;13129;48.012;10.352;2024-03-02T16:16:42;10.70;99.90
25170;DHT22;13129;48.012;10.352;2024-03-02T16:19:08;10.60;99.90
25170;DHT22;13129;48.012;10.352;2024-03-02T16:21:33;10.50;99.90
25170;DHT22;13129;48.012;10.352;2024-03-02T16:23:59;10.40;99.90
25170;DHT22;13129;48.012;10.352;2024-03-02T16:26:25;10.20;99.90
25170;DHT22;13129;48.012;10.352;2024-03-02T16:28:51;10.10;99.90
25170;DHT22;13129;48.012;10.352;2024-03-02T16:31:16;10.00;99.90
25170;DHT22;13129;48.012;10.352;2024-03-02T16:33:43;9.80;99.90
25170;DHT22;13129;48.012;10.352;2024-03-02T16:36:09;9.70;99.90
25170;DHT22;13129;48.012;10.352;2024-03-02T16:38:35;9.60;99.90
25170;DHT22;13129;48.012;10.352;2024-03-02T16:41:00;9.60;99.90
25170;DHT22;13129;48.012;10.352;2024-03-02T16:43:26;9.50;99.90
25170;DHT22;13129;48.012;10.352;2024-03-02T16:45:51;9.40;99.90
25170;DHT22;13129;48.012;10.352;2024-03-02T16:48:17;9.40;99.90
25170;DHT22;13129;48.012;10.352;2024-03-02T16:50:43;9.30;99.90
25170;DHT22;13129;48.012;10.352;2024-03-02T16:53:08;9.20;99.90
25170;DHT22;13129;48.012;10.352;2024-03-02T16:55:34;9.20;99.90
25170;DHT22;13129;48.012;10.352;2024-03-02T16:58:00;9.10;99.90
25170;DHT22;13129;48.012;10.352;2024-03-02T17:00:25;9.10;99.90
25170;DHT22;13129;48.012;10.352;2024-03-02T17:02:51;9.10;99.90
25170;DHT22;13129;48.012;10.352;2024-03-02T17:05:18;9.10;99.90
25170;DHT22;13129;48.012;10.352;2024-03-02T17:07:46;9.00;99.90
25170;DHT22;13129;48.012;10.352;2024-03-02T17:10:12;9.00;99.90
25170;DHT22;13129;48.012;10.352;2024-03-02T17:12:38;8.90;99.90
25170;DHT22;13129;48.012;10.352;2024-03-02T17:15:04;8.80;99.90
25170;DHT22;13129;48.012;10.352;2024-03-02T17:17:30;8.80;99.90
25170;DHT22;13129;48.012;10.352;2024-03-02T17:19:56;8.80;99.90
25170;DHT22;13129;48.012;10.352;2024-03-02T17:22:22;8.70;99.90
25170;DHT22;13129;48.012;10.352;2024-03-02T17:24:49;8.70;99.90
25170;DHT22;13129;48.012;10.352;2024-03-02T17:27:14;8.70;99.90
25170;DHT22;13129;48.012;10.352;2024-03-02T17:29:40;8.70;99.90
25170;DHT22;13129;48.012;10.352;2024-03-02T17:32:05;8.70;99.90
25170;DHT22;13129;48.012;10.352;2024-03-02T17:34:31;8.60;99.90
25170;DHT22;13129;48.012;10.352;2024-03-02T17:36:57;8.60;99.90
25170;DHT22;13129;48.012;10.352;2024-03-02T17:39:23;8.50;99.90
25170;DHT22;13129;48.012;10.352;2024-03-02T17:41:48;8.50;99.90
25170;DHT22;13129;48.012;10.352;2024-03-02T17:44:14;8.50;99.90
25170;DHT22;13129;48.012;10.352;2024-03-02T17:46:39;8.40;99.90
25170;DHT22;13129;48.012;10.352;2024-03-02T17:49:05;8.40;99.90
25170;DHT22;13129;48.012;10.352;2024-03-02T17:51:30;8.30;99.90
25170;DHT22;13129;48.012;10.352;2024-03-02T17:53:56;8.30;99.90
25170;DHT22;13129;48.012;10.352;2024-03-02T17:56:21;8.20;99.90
25170;DHT22;13129;48.012;10.352;2024-03-02T17:58:47;8.20;99.90
25170;DHT22;13129;48.012;10.352;2024-03-02T18:01:13;8.20;99.90
25170;DHT22;13129;48.012;10.352;2024-03-02T18:03:40;8.20;99.90
25170;DHT22;13129;48.012;10.352;2024-03-02T18:06:06;8.10;99.90
25170;DHT22;13129;48.012;10.352;2024-03-02T18:08:34;8.10;99.90
25170;DHT22;13129;48.012;10.352;2024-03-02T18:11:00;8.10;99.90
25170;DHT22;13129;48.012;10.352;2024-03-02T18:13:25;8.10;99.90
25170;DHT22;13129;48.012;10.352;2024-03-02T18:15:51;8.10;99.90
25170;DHT22;13129;48.012;10.352;2024-03-02T18:18:17;8.10;99.90
25170;DHT22;13129;48.012;10.352;2024-03-02T18:20:42;8.10;99.90
25170;DHT22;13129;48.012;10.352;2024-03-02T18:23:09;8.00;99.90
25170;DHT22;13129;48.012;10.352;2024-03-02T18:25:35;8.00;99.90
25170;DHT22;13129;48.012;10.352;2024-03-02T18:28:00;8.00;99.90
25170;DHT22;13129;48.012;10.352;2024-03-02T18:30:26;8.00;99.90
25170;DHT22;13129;48.012;10.352;2024-03-02T18:32:52;7.90;99.90
25170;DHT22;13129;48.012;10.352;2024-03-02T18:35:17;7.90;99.90
25170;DHT22;13129;48.012;10.352;2024-03-02T18:37:43;7.90;99.90
25170;DHT22;13129;48.012;10.352;2024-03-02T18:40:11;7.90;99.90
25170;DHT22;13129;48.012;10.352;2024-03-02T18:42:36;7.80;99.90
25170;DHT22;13129;48.012;10.352;2024-03-02T18:45:02;7.70;99.90
25170;DHT22;13129;48.012;10.352;2024-03-02T18:47:31;7.70;99.90
25170;DHT22;13129;48.012;10.352;2024-03-02T18:49:56;7.50;99.90
25170;DHT22;13129;48.012;10.352;2024-03-02T18:52:23;7.40;99.90
25170;DHT22;13129;48.012;10.352;2024-03-02T18:54:50;7.30;99.90
25170;DHT22;13129;48.012;10.352;2024-03-02T18:57:15;7.20;99.90
25170;DHT22;13129;48.012;10.352;2024-03-02T18:59:41;7.00;99.90
25170;DHT22;13129;48.012;10.352;2024-03-02T19:02:07;7.00;99.90
25170;DHT22;13129;48.012;10.352;2024-03-02T19:04:33;6.90;99.90
25170;DHT22;13129;48.012;10.352;2024-03-02T19:06:58;6.90;99.90
25170;DHT22;13129;48.012;10.352;2024-03-02T19:09:24;6.80;99.90
25170;DHT22;13129;48.012;10.352;2024-03-02T19:11:50;6.70;99.90
25170;DHT22;13129;48.012;10.352;2024-03-02T19:14:15;6.80;99.90
25170;DHT22;13129;48.012;10.352;2024-03-02T19:16:41;6.60;99.90
25170;DHT22;13129;48.012;10.352;2024-03-02T19:19:09;6.50;99.90
25170;DHT22;13129;48.012;10.352;2024-03-02T19:21:35;6.60;99.90
25170;DHT22;13129;48.012;10.352;2024-03-02T19:24:00;6.40;99.90
25170;DHT22;13129;48.012;10.352;2024-03-02T19:26:26;6.40;99.90
25170;DHT22;13129;48.012;10.352;2024-03-02T19:28:51;6.30;99.90
25170;DHT22;13129;48.012;10.352;2024-03-02T19:31:17;6.20;99.90
25170;DHT22;13129;48.012;10.352;2024-03-02T19:33:42;6.20;99.90
25170;DHT22;13129;48.012;10.352;2024-03-02T19:36:10;6.10;99.90
25170;DHT22;13129;48.012;10.352;2024-03-02T19:38:35;6.00;99.90
25170;DHT22;13129;48.012;10.352;2024-03-02T19:41:02;6.00;99.90
25170;DHT22;13129;48.012;10.352;2024-03-02T19:43:28;5.90;99.90
25170;DHT22;13129;48.012;10.352;2024-03-02T19:45:54;5.90;99.90
25170;DHT22;13129;48.012;10.352;2024-03-02T19:48:19;5.90;99.90
25170;DHT22;13129;48.012;10.352;2024-03-02T19:50:45;5.70;99.90
25170;DHT22;13129;48.012;10.352;2024-03-02T19:53:11;5.80;99.90
25170;DHT22;13129;48.012;10.352;2024-03-02T19:55:36;5.70;99.90
25170;DHT22;13129;48.012;10.352;2024-03-02T19:58:03;5.80;99.90
25170;DHT22;13129;48.012;10.352;2024-03-02T20:00:29;5.70;99.90
25170;DHT22;13129;48.012;10.352;2024-03-02T20:02:54;5.60;99.90
25170;DHT22;13129;48.012;10.352;2024-03-02T20:05:20;5.60;99.90
25170;DHT22;13129;48.012;10.352;2024-03-02T20:07:46;5.50;99.90
25170;DHT22;13129;48.012;10.352;2024-03-02T20:10:11;5.60;99.90
25170;DHT22;13129;48.012;10.352;2024-03-02T20:12:38;5.60;99.90
25170;DHT22;13129;48.012;10.352;2024-03-02T20:15:05;5.60;99.90
25170;DHT22;13129;48.012;10.352;2024-03-02T20:17:31;5.50;99.90
25170;DHT22;13129;48.012;10.352;2024-03-02T20:19:59;5.50;99.90
25170;DHT22;13129;48.012;10.352;2024-03-02T20:22:25;5.40;99.90
25170;DHT22;13129;48.012;10.352;2024-03-02T20:24:50;5.40;99.90
25170;DHT22;13129;48.012;10.352;2024-03-02T20:27:18;5.40;99.90
25170;DHT22;13129;48.012;10.352;2024-03-02T20:29:45;5.40;99.90
25170;DHT22;13129;48.012;10.352;2024-03-02T20:32:11;5.40;99.90
25170;DHT22;13129;48.012;10.352;2024-03-02T20:34:37;5.40;99.90
25170;DHT22;13129;48.012;10.352;2024-03-02T20:37:02;5.40;99.90
25170;DHT22;13129;48.012;10.352;2024-03-02T20:39:29;5.40;99.90
25170;DHT22;13129;48.012;10.352;2024-03-02T20:41:56;5.30;99.90
25170;DHT22;13129;48.012;10.352;2024-03-02T20:44:21;5.20;99.90
25170;DHT22;13129;48.012;10.352;2024-03-02T20:46:49;5.20;99.90
25170;DHT22;13129;48.012;10.352;2024-03-02T20:49:15;5.20;99.90
25170;DHT22;13129;48.012;10.352;2024-03-02T20:51:41;5.20;99.90
25170;DHT22;13129;48.012;10.352;2024-03-02T20:54:07;5.10;99.90
25170;DHT22;13129;48.012;10.352;2024-03-02T20:56:32;5.10;99.90
25170;DHT22;13129;48.012;10.352;2024-03-02T20:59:02;5.10;99.90
25170;DHT22;13129;48.012;10.352;2024-03-02T21:01:28;5.00;99.90
25170;DHT22;13129;48.012;10.352;2024-03-02T21:03:54;5.00;99.90
25170;DHT22;13129;48.012;10.352;2024-03-02T21:06:19;5.10;99.90
25170;DHT22;13129;48.012;10.352;2024-03-02T21:08:45;5.00;99.90
25170;DHT22;13129;48.012;10.352;2024-03-02T21:11:11;4.90;99.90
25170;DHT22;13129;48.012;10.352;2024-03-02T21:13:39;4.90;99.90
25170;DHT22;13129;48.012;10.352;2024-03-02T21:16:05;4.80;99.90
25170;DHT22;13129;48.012;10.352;2024-03-02T21:18:31;4.80;99.90
25170;DHT22;13129;48.012;10.352;2024-03-02T21:20:59;4.80;99.90
25170;DHT22;13129;48.012;10.352;2024-03-02T21:23:25;4.70;99.90
25170;DHT22;13129;48.012;10.352;2024-03-02T21:25:50;4.70;99.90
25170;DHT22;13129;48.012;10.352;2024-03-02T21:28:16;4.60;99.90
25170;DHT22;13129;48.012;10.352;2024-03-02T21:30:41;4.60;99.90
25170;DHT22;13129;48.012;10.352;2024-03-02T21:33:07;4.60;99.90
25170;DHT22;13129;48.012;10.352;2024-03-02T21:35:33;4.50;99.90
25170;DHT22;13129;48.012;10.352;2024-03-02T21:38:02;4.50;99.90
25170;DHT22;13129;48.012;10.352;2024-03-02T21:40:32;4.30;99.90
25170;DHT22;13129;48.012;10.352;2024-03-02T21:42:58;4.20;99.90
25170;DHT22;13129;48.012;10.352;2024-03-02T21:45:24;4.10;99.90
25170;DHT22;13129;48.012;10.352;2024-03-02T21:47:50;4.10;99.90
25170;DHT22;13129;48.012;10.352;2024-03-02T21:50:16;4.10;99.90
25170;DHT22;13129;48.012;10.352;2024-03-02T21:52:45;4.10;99.90
25170;DHT22;13129;48.012;10.352;2024-03-02T21:55:12;4.00;99.90
25170;DHT22;13129;48.012;10.352;2024-03-02T21:57:38;4.10;99.90
25170;DHT22;13129;48.012;10.352;2024-03-02T22:00:05;4.20;99.90
25170;DHT22;13129;48.012;10.352;2024-03-02T22:02:31;4.10;99.90
25170;DHT22;13129;48.012;10.352;2024-03-02T22:04:56;4.20;99.90
25170;DHT22;13129;48.012;10.352;2024-03-02T22:07:23;4.00;99.90
25170;DHT22;13129;48.012;10.352;2024-03-02T22:09:50;4.00;99.90